Terminal Aerodrome Forecast
Issued by NWS Jacksonville, FL

Home | Current Version | Previous Version | Text Only | Print | Product List | Glossary On
Versions: 1 2 3 4 5 6 7 8 9 10 11 12 13 14 15 16 17 18 19 20
765
FTUS42 KJAX 292343
TAFSSI
TAF
KSSI 292343Z 3000/3024 30010KT P6SM FEW060 SCT250
     FM300100 30005KT P6SM SCT250
     FM301400 30008KT P6SM FEW030 SCT250=

USA.gov is the U.S. government's official web portal to all federal, state and local government web resources and services.